Time;durP1;ratioP1;P1;durP2;ratioP2;P2;SDS_P1;SDS_P2;PMS_P1;PMS_P2;Temp;Humidity;BMP_temperature;BMP_pressure;BME280_temperature;BME280_humidity;BME280_pressure;Samples;Min_cycle;Max_cycle;Signal;HPM_P1;HPM_P2
2020/12/19 00:01:34;;;;;;;;;;;;;;;3.92;86.73;100865.69;5094398;28;19935;-71
2020/12/19 00:04:02;;;;;;;;;;;;;;;3.95;86.79;100864.97;5094477;28;19924;-72
2020/12/19 00:06:29;;;;;;;;;;;;;;;3.93;86.99;100859.84;5094308;28;19924;-72
2020/12/19 00:08:58;;;;;;;;;;;;;;;3.89;86.71;100860.50;5094393;28;19969;-71
2020/12/19 00:11:33;;;;;;;;;;;;;;;3.92;87.26;100860.63;5094373;28;19979;-71
2020/12/19 00:14:00;;;;;;;;;;;;;;;3.91;86.65;100853.84;5094326;28;19924;-71
2020/12/19 00:16:29;;;;;;;;;;;;;;;3.94;86.38;100853.97;5094039;28;20389;-71
2020/12/19 00:18:57;;;;;;;;;;;;;;;3.94;86.62;100848.06;5094185;28;19927;-72
2020/12/19 00:21:24;;;;;;;;;;;;;;;3.94;86.26;100848.94;5094241;28;20012;-71
2020/12/19 00:23:51;;;;;;;;;;;;;;;3.91;86.87;100853.00;5092513;28;19924;-71
2020/12/19 00:26:20;;;;;;;;;;;;;;;3.90;86.40;100851.25;5094431;28;19932;-72
2020/12/19 00:28:48;;;;;;;;;;;;;;;3.91;86.31;100851.31;5094178;28;19931;-71
2020/12/19 00:31:16;;;;;;;;;;;;;;;3.93;86.63;100852.28;5094162;28;20015;-71
2020/12/19 00:33:43;;;;;;;;;;;;;;;3.95;86.35;100845.63;5094534;28;20281;-71
2020/12/19 00:36:10;;;;;;;;;;;;;;;3.97;86.44;100848.22;5094132;28;19924;-71
2020/12/19 00:38:38;;;;;;;;;;;;;;;4.00;86.35;100839.13;5094044;28;19967;-72
2020/12/19 00:41:05;;;;;;;;;;;;;;;4.01;86.36;100840.81;5094060;28;19930;-72
2020/12/19 00:43:35;;;;;;;;;;;;;;;4.03;86.39;100839.22;5093947;28;19930;-71
2020/12/19 00:46:03;;;;;;;;;;;;;;;3.98;85.89;100828.06;5094302;28;20313;-71
2020/12/19 00:48:30;;;;;;;;;;;;;;;3.95;86.61;100830.47;5093995;28;19960;-72
2020/12/19 00:50:57;;;;;;;;;;;;;;;3.95;86.22;100840.56;5093923;28;19924;-71
2020/12/19 00:53:25;;;;;;;;;;;;;;;3.92;86.80;100835.38;5094118;28;19928;-71
2020/12/19 00:55:52;;;;;;;;;;;;;;;3.91;86.32;100835.31;5093920;28;19962;-72
2020/12/19 00:58:20;;;;;;;;;;;;;;;3.91;86.68;100830.28;5093834;28;19927;-72
2020/12/19 01:00:49;;;;;;;;;;;;;;;3.91;86.43;100831.09;5093878;28;19924;-71
2020/12/19 01:03:16;;;;;;;;;;;;;;;3.95;86.63;100820.38;5093718;28;19924;-70
2020/12/19 01:05:44;;;;;;;;;;;;;;;3.98;86.66;100825.53;5093841;28;19928;-72
2020/12/19 01:08:11;;;;;;;;;;;;;;;3.99;86.33;100827.28;5093813;28;19924;-71
2020/12/19 01:10:39;;;;;;;;;;;;;;;3.97;86.08;100823.81;5093649;28;19931;-71
2020/12/19 01:13:06;;;;;;;;;;;;;;;4.00;86.88;100823.09;5093723;28;19924;-72
2020/12/19 01:15:33;;;;;;;;;;;;;;;3.95;86.35;100825.41;5093468;28;20278;-71
2020/12/19 01:18:01;;;;;;;;;;;;;;;3.97;86.86;100828.88;5093698;28;19949;-71
2020/12/19 01:20:29;;;;;;;;;;;;;;;3.95;86.44;100824.56;5093682;28;19924;-70
2020/12/19 01:22:57;;;;;;;;;;;;;;;3.96;86.07;100822.09;5093454;28;19924;-70
2020/12/19 01:25:24;;;;;;;;;;;;;;;3.94;86.80;100817.75;5093606;28;19932;-70
2020/12/19 01:27:51;;;;;;;;;;;;;;;3.95;86.31;100820.38;5093607;28;19924;-71
2020/12/19 01:30:19;;;;;;;;;;;;;;;3.98;86.72;100815.44;5093419;28;19924;-70
2020/12/19 01:32:46;;;;;;;;;;;;;;;3.99;86.34;100812.13;5093577;28;19928;-71
2020/12/19 01:35:35;;;;;;;;;;;;;;;3.93;86.15;100814.41;5094754;28;20301;-72
2020/12/19 01:38:03;;;;;;;;;;;;;;;3.93;86.26;100811.88;5097444;28;19924;-71
2020/12/19 01:40:30;;;;;;;;;;;;;;;3.93;86.12;100801.78;5097156;28;19924;-70
2020/12/19 01:42:57;;;;;;;;;;;;;;;3.97;86.33;100806.16;5097173;28;20370;-70
2020/12/19 01:45:25;;;;;;;;;;;;;;;3.99;86.31;100802.03;5096913;28;19931;-71
2020/12/19 01:47:52;;;;;;;;;;;;;;;4.04;86.52;100804.75;5097035;28;19947;-70
2020/12/19 01:50:20;;;;;;;;;;;;;;;4.05;86.06;100802.25;5096933;28;19931;-71
2020/12/19 01:52:48;;;;;;;;;;;;;;;4.05;85.96;100802.25;5096945;28;19924;-71
2020/12/19 01:55:16;;;;;;;;;;;;;;;4.03;86.44;100798.81;5096804;28;19947;-70
2020/12/19 01:57:43;;;;;;;;;;;;;;;4.04;86.07;100795.50;5096833;28;19924;-71
2020/12/19 02:00:12;;;;;;;;;;;;;;;4.07;86.06;100795.66;5096729;28;19931;-72
2020/12/19 02:02:40;;;;;;;;;;;;;;;4.07;85.63;100790.59;5096685;28;19924;-72
2020/12/19 02:05:07;;;;;;;;;;;;;;;4.06;85.49;100787.97;5096724;28;19924;-72
2020/12/19 02:07:36;;;;;;;;;;;;;;;4.04;85.65;100780.34;5096516;28;20297;-72
2020/12/19 02:10:04;;;;;;;;;;;;;;;4.06;85.54;100783.81;5096928;28;19924;-72
2020/12/19 02:12:31;;;;;;;;;;;;;;;4.04;85.49;100785.41;5096491;28;19924;-72
2020/12/19 02:14:59;;;;;;;;;;;;;;;4.05;85.84;100782.06;5096395;28;19928;-72
2020/12/19 02:17:27;;;;;;;;;;;;;;;4.05;85.89;100787.13;5096395;28;19930;-72
2020/12/19 02:19:57;;;;;;;;;;;;;;;4.06;85.60;100781.28;5096710;28;19924;-71
2020/12/19 02:22:24;;;;;;;;;;;;;;;4.10;85.49;100789.00;5096344;28;20390;-73
2020/12/19 02:24:53;;;;;;;;;;;;;;;4.08;85.69;100782.19;5096275;28;20373;-72
2020/12/19 02:27:21;;;;;;;;;;;;;;;4.04;86.03;100782.88;5096287;28;19924;-72
2020/12/19 02:29:50;;;;;;;;;;;;;;;4.06;85.48;100777.88;5096213;28;19924;-72
2020/12/19 02:32:17;;;;;;;;;;;;;;;4.04;85.83;100779.47;5096055;28;19928;-70
2020/12/19 02:34:45;;;;;;;;;;;;;;;4.04;86.05;100777.81;5094963;28;19928;-70
2020/12/19 02:37:12;;;;;;;;;;;;;;;4.03;85.82;100777.78;5096123;28;19931;-70
2020/12/19 02:39:43;;;;;;;;;;;;;;;4.05;86.05;100781.22;5095994;28;19924;-71
2020/12/19 02:42:11;;;;;;;;;;;;;;;4.03;85.66;100778.59;5095941;28;19931;-70
2020/12/19 02:44:38;;;;;;;;;;;;;;;4.04;86.17;100780.34;5094984;28;19971;-71
2020/12/19 02:47:06;;;;;;;;;;;;;;;4.07;86.21;100780.50;5095505;28;20270;-70
2020/12/19 02:49:33;;;;;;;;;;;;;;;4.05;85.54;100777.00;5095916;28;19925;-73
2020/12/19 02:52:00;;;;;;;;;;;;;;;4.07;85.53;100779.63;5095652;28;19931;-70
2020/12/19 02:54:32;;;;;;;;;;;;;;;4.10;85.53;100783.94;5095763;28;19924;-70
2020/12/19 02:57:00;;;;;;;;;;;;;;;4.10;85.51;100783.94;5095641;28;19977;-70
2020/12/19 02:59:28;;;;;;;;;;;;;;;4.07;85.92;100785.53;5095700;28;19924;-70
2020/12/19 03:01:56;;;;;;;;;;;;;;;4.08;85.68;100787.25;5095433;28;19924;-71
2020/12/19 03:04:23;;;;;;;;;;;;;;;4.07;85.80;100789.72;5095766;28;19928;-71
2020/12/19 03:06:51;;;;;;;;;;;;;;;4.07;85.84;100795.66;5095444;28;19924;-70
2020/12/19 03:09:21;;;;;;;;;;;;;;;4.08;85.55;100787.25;5095518;28;19977;-73
2020/12/19 03:11:49;;;;;;;;;;;;;;;4.06;85.69;100793.91;5095457;28;19924;-72
2020/12/19 03:14:19;;;;;;;;;;;;;;;4.10;85.67;100783.94;5095200;28;20373;-72
2020/12/19 03:16:48;;;;;;;;;;;;;;;4.11;85.85;100784.00;5095094;28;19924;-72
2020/12/19 03:19:15;;;;;;;;;;;;;;;4.08;85.61;100782.19;5094036;28;19928;-73
2020/12/19 03:21:45;;;;;;;;;;;;;;;4.05;85.78;100787.13;5095269;28;19932;-72
2020/12/19 03:24:12;;;;;;;;;;;;;;;4.05;85.67;100776.16;5095123;28;19924;-70
2020/12/19 03:26:40;;;;;;;;;;;;;;;4.06;85.63;100778.75;5094974;28;20396;-70
2020/12/19 03:29:07;;;;;;;;;;;;;;;4.06;85.75;100772.81;5095104;28;19990;-71
2020/12/19 03:31:35;;;;;;;;;;;;;;;4.05;85.47;100774.47;5094980;28;19928;-71
2020/12/19 03:34:03;;;;;;;;;;;;;;;4.06;85.94;100771.16;5094994;28;19924;-70
2020/12/19 03:36:44;;;;;;;;;;;;;;;4.05;85.82;100771.97;5094871;28;19954;-71
2020/12/19 03:39:13;;;;;;;;;;;;;;;4.05;85.58;100777.00;5094920;28;19924;-70
2020/12/19 03:41:40;;;;;;;;;;;;;;;4.07;85.19;100772.03;5094809;28;19945;-70
2020/12/19 03:44:08;;;;;;;;;;;;;;;4.08;84.78;100768.69;5094685;28;20381;-70
2020/12/19 03:46:35;;;;;;;;;;;;;;;4.07;84.69;100770.38;5094786;28;19939;-72
2020/12/19 03:49:04;;;;;;;;;;;;;;;4.12;84.49;100772.22;5094589;28;19931;-72
2020/12/19 03:51:31;;;;;;;;;;;;;;;4.12;84.15;100769.72;5094724;28;19924;-72
2020/12/19 03:53:59;;;;;;;;;;;;;;;4.08;84.17;100777.16;5094580;28;19924;-72
2020/12/19 03:56:29;;;;;;;;;;;;;;;4.10;84.18;100773.84;5094697;28;19924;-72
2020/12/19 03:58:57;;;;;;;;;;;;;;;4.12;84.72;100772.22;5093939;28;20385;-72
2020/12/19 04:01:25;;;;;;;;;;;;;;;4.12;84.24;100777.28;5094472;28;19932;-70
2020/12/19 04:03:52;;;;;;;;;;;;;;;4.10;84.18;100774.72;5094422;28;19932;-71
2020/12/19 04:06:21;;;;;;;;;;;;;;;4.08;84.66;100777.16;5094486;28;19947;-72
2020/12/19 04:08:48;;;;;;;;;;;;;;;4.02;84.41;100769.31;5094694;28;20282;-71
2020/12/19 04:11:16;;;;;;;;;;;;;;;4.02;84.96;100773.50;5094391;28;19924;-70
2020/12/19 04:13:45;;;;;;;;;;;;;;;4.02;85.33;100769.31;5094344;28;19928;-71
2020/12/19 04:16:13;;;;;;;;;;;;;;;4.01;85.42;100765.06;5094063;28;19947;-72
2020/12/19 04:18:46;;;;;;;;;;;;;;;4.00;85.15;100763.34;5093976;28;20163;-71
2020/12/19 04:21:14;;;;;;;;;;;;;;;3.99;85.13;100751.50;5094132;28;19967;-71
2020/12/19 04:23:43;;;;;;;;;;;;;;;4.00;84.98;100753.25;5094217;28;19970;-71
2020/12/19 04:26:10;;;;;;;;;;;;;;;3.98;85.79;100753.97;5094082;28;19924;-70
2020/12/19 04:28:38;;;;;;;;;;;;;;;3.97;85.56;100753.09;5094170;28;19978;-70
2020/12/19 04:31:05;;;;;;;;;;;;;;;3.98;85.38;100759.88;5094083;28;19955;-72
2020/12/19 04:33:32;;;;;;;;;;;;;;;3.96;85.66;100760.59;5094089;28;19924;-72
2020/12/19 04:36:00;;;;;;;;;;;;;;;3.99;85.74;100761.59;5094060;28;19924;-70
2020/12/19 04:38:27;;;;;;;;;;;;;;;4.02;85.63;100754.16;5094045;28;19924;-71
2020/12/19 04:40:56;;;;;;;;;;;;;;;4.00;85.53;100758.31;5094331;28;20042;-71
2020/12/19 04:43:24;;;;;;;;;;;;;;;3.98;85.73;100749.78;5093924;28;20373;-73
2020/12/19 04:45:51;;;;;;;;;;;;;;;3.97;85.88;100753.09;5094332;28;19924;-70
2020/12/19 04:48:22;;;;;;;;;;;;;;;3.97;85.65;100753.09;5093988;28;19931;-71
2020/12/19 04:50:49;;;;;;;;;;;;;;;4.01;86.23;100749.91;5093933;28;19924;-71
2020/12/19 04:53:17;;;;;;;;;;;;;;;4.06;86.13;100743.38;5093863;28;19925;-71
2020/12/19 04:55:44;;;;;;;;;;;;;;;4.06;85.77;100748.44;5093904;28;19977;-70
2020/12/19 04:58:13;;;;;;;;;;;;;;;4.07;86.07;100740.06;5093848;28;19924;-71
2020/12/19 05:00:40;;;;;;;;;;;;;;;4.06;85.63;100752.63;5093887;28;19924;-70
2020/12/19 05:03:08;;;;;;;;;;;;;;;4.08;86.03;100751.88;5093683;28;19931;-70
2020/12/19 05:05:37;;;;;;;;;;;;;;;4.05;85.60;100751.75;5093819;28;20011;-71
2020/12/19 05:08:04;;;;;;;;;;;;;;;4.03;85.64;100750.81;5093816;28;19924;-71
2020/12/19 05:10:32;;;;;;;;;;;;;;;4.03;85.66;100752.53;5096205;28;20011;-71
2020/12/19 05:12:59;;;;;;;;;;;;;;;4.06;85.72;100747.56;5097736;28;19924;-71
2020/12/19 05:15:28;;;;;;;;;;;;;;;4.08;85.52;100751.03;5097293;28;20383;-71
2020/12/19 05:17:56;;;;;;;;;;;;;;;4.03;85.55;100748.31;5097949;28;19997;-71
2020/12/19 05:20:26;;;;;;;;;;;;;;;4.03;86.02;100748.31;5097606;28;19973;-69
2020/12/19 05:22:54;;;;;;;;;;;;;;;3.99;85.89;100751.50;5097467;28;19931;-71
2020/12/19 05:25:22;;;;;;;;;;;;;;;4.01;86.00;100754.09;5097466;28;19928;-71
2020/12/19 05:27:49;;;;;;;;;;;;;;;4.02;86.23;100749.13;5097437;28;19972;-72
2020/12/19 05:30:17;;;;;;;;;;;;;;;4.04;85.73;100750.03;5097334;28;20013;-70
2020/12/19 05:32:46;;;;;;;;;;;;;;;3.99;85.78;100751.50;5097342;28;19924;-71
2020/12/19 05:35:13;;;;;;;;;;;;;;;4.03;86.12;100752.53;5097238;28;19931;-71
2020/12/19 05:37:56;;;;;;;;;;;;;;;4.07;85.57;100745.13;5096430;28;19925;-72
2020/12/19 05:40:23;;;;;;;;;;;;;;;4.11;85.91;100750.28;5097194;28;20340;-71
2020/12/19 05:42:51;;;;;;;;;;;;;;;4.11;85.47;100751.16;5097336;28;19927;-70
2020/12/19 05:45:19;;;;;;;;;;;;;;;4.12;85.27;100752.03;5097149;28;19924;-70
2020/12/19 05:47:47;;;;;;;;;;;;;;;4.07;85.05;100750.19;5097022;28;19931;-71
2020/12/19 05:50:16;;;;;;;;;;;;;;;4.08;85.61;100754.41;5097042;28;19928;-71
2020/12/19 05:52:44;;;;;;;;;;;;;;;4.12;85.13;100757.06;5096906;28;19931;-70
2020/12/19 05:57:54;;;;;;;;;;;;;;;4.07;85.24;100755.22;5054701;28;20481;-71
2020/12/19 06:00:21;;;;;;;;;;;;;;;4.10;85.43;100758.69;5054740;28;20363;-72
2020/12/19 06:02:52;;;;;;;;;;;;;;;4.12;85.08;100754.56;5054558;28;19932;-73
2020/12/19 06:05:20;;;;;;;;;;;;;;;4.14;85.00;100755.47;5054171;28;19925;-72
2020/12/19 06:07:47;;;;;;;;;;;;;;;4.07;84.96;100755.22;5054485;28;19971;-73
2020/12/19 06:10:15;;;;;;;;;;;;;;;4.12;84.97;100757.06;5054300;28;19928;-72
2020/12/19 06:12:47;;;;;;;;;;;;;;;4.14;85.44;100755.47;5054279;28;19925;-72
2020/12/19 06:15:16;;;;;;;;;;;;;;;4.14;84.89;100755.47;5054168;28;20425;-71
2020/12/19 06:17:47;;;;;;;;;;;;;;;4.15;84.78;100752.16;5054061;28;20475;-72
2020/12/19 06:20:16;;;;;;;;;;;;;;;4.16;84.95;100753.88;5054252;28;20135;-71
2020/12/19 06:22:44;;;;;;;;;;;;;;;4.18;84.95;100752.28;5053242;28;20386;-70
2020/12/19 06:25:11;;;;;;;;;;;;;;;4.19;84.78;100754.88;5054061;28;19931;-71
2020/12/19 06:27:39;;;;;;;;;;;;;;;4.15;84.85;100762.28;5053944;28;19925;-70
2020/12/19 06:30:08;;;;;;;;;;;;;;;4.17;84.88;100758.13;5053919;28;19932;-71
2020/12/19 06:32:38;;;;;;;;;;;;;;;4.15;84.86;100758.06;5053894;28;19929;-71
2020/12/19 06:35:06;;;;;;;;;;;;;;;4.10;84.81;100753.63;5075180;28;19934;-70
2020/12/19 06:37:34;;;;;;;;;;;;;;;4.14;84.71;100750.41;5096093;28;19947;-70
2020/12/19 06:40:06;;;;;;;;;;;;;;;4.16;84.78;100753.88;5096342;28;20388;-71
2020/12/19 06:42:34;;;;;;;;;;;;;;;4.16;84.74;100754.75;5096676;28;20374;-70
2020/12/19 06:45:16;;;;;;;;;;;;;;;4.12;84.87;100762.13;5095900;28;19924;-72
2020/12/19 06:47:43;;;;;;;;;;;;;;;4.08;85.13;100751.88;5095630;28;19924;-71
2020/12/19 06:50:11;;;;;;;;;;;;;;;4.06;84.90;100763.59;5095918;28;19931;-71
2020/12/19 06:52:39;;;;;;;;;;;;;;;4.03;84.27;100765.97;5095693;28;20284;-71
2020/12/19 06:55:09;;;;;;;;;;;;;;;4.07;84.20;100757.75;5095808;28;19959;-70
2020/12/19 06:57:36;;;;;;;;;;;;;;;4.15;84.56;100764.78;5095978;28;19978;-71
2020/12/19 07:00:15;;;;;;;;;;;;;;;4.12;83.57;100767.19;5095926;28;19923;-71
2020/12/19 07:02:47;;;;;;;;;;;;;;;4.15;83.95;100772.38;5095721;28;19924;-70
2020/12/19 07:05:18;;;;;;;;;;;;;;;4.17;83.65;100761.53;5094319;28;19928;-70
2020/12/19 07:07:47;;;;;;;;;;;;;;;4.17;83.34;100765.72;5094440;28;20058;-70
2020/12/19 07:10:14;;;;;;;;;;;;;;;4.16;83.30;100766.50;5095416;28;19924;-71
2020/12/19 07:13:02;;;;;;;;;;;;;;;4.17;83.38;100771.63;5073359;28;19959;-71
2020/12/19 07:15:41;;;;;;;;;;;;;;;4.16;83.22;100769.91;5072667;28;19924;-72
2020/12/19 07:18:22;;;;;;;;;;;;;;;4.16;83.12;100769.91;5073109;28;20007;-72
2020/12/19 07:20:55;;;;;;;;;;;;;;;4.17;83.08;100770.78;5072968;28;19931;-72
2020/12/19 07:23:23;;;;;;;;;;;;;;;4.19;83.05;100781.78;5072796;28;20385;-73
2020/12/19 07:25:51;;;;;;;;;;;;;;;4.19;82.88;100779.28;5072793;28;20421;-71
2020/12/19 07:28:19;;;;;;;;;;;;;;;4.22;83.20;100781.94;5072809;28;19952;-70
2020/12/19 07:30:47;;;;;;;;;;;;;;;4.21;82.77;100777.66;5072797;28;19928;-70
2020/12/19 07:33:15;;;;;;;;;;;;;;;4.23;83.24;100781.13;5071739;28;19931;-70
2020/12/19 07:35:42;;;;;;;;;;;;;;;4.21;83.29;100781.06;5072633;28;19924;-70
2020/12/19 07:38:10;;;;;;;;;;;;;;;4.19;83.02;100776.75;5072605;28;19924;-70
2020/12/19 07:40:39;;;;;;;;;;;;;;;4.21;83.39;100772.63;5072556;28;19928;-72
2020/12/19 07:43:06;;;;;;;;;;;;;;;4.24;82.89;100773.63;5072393;28;19928;-71
2020/12/19 07:45:34;;;;;;;;;;;;;;;4.26;83.25;100778.72;5072406;28;19924;-71
2020/12/19 07:48:03;;;;;;;;;;;;;;;4.28;83.07;100769.53;5072408;28;19924;-70
2020/12/19 07:50:31;;;;;;;;;;;;;;;4.31;82.66;100774.72;5086900;28;19925;-72
2020/12/19 07:52:59;;;;;;;;;;;;;;;4.30;82.89;100778.91;5094617;28;19928;-70
2020/12/19 07:55:27;;;;;;;;;;;;;;;4.25;82.94;100770.28;5094624;28;19924;-71
2020/12/19 07:57:55;;;;;;;;;;;;;;;4.24;82.58;100772.75;5094583;28;19924;-70
2020/12/19 08:00:26;;;;;;;;;;;;;;;4.23;82.33;100781.13;5094651;28;20399;-71
2020/12/19 08:02:53;;;;;;;;;;;;;;;4.23;82.31;100788.69;5094612;28;19924;-71
2020/12/19 08:05:20;;;;;;;;;;;;;;;4.23;82.17;100781.13;5094364;28;19924;-71
2020/12/19 08:07:50;;;;;;;;;;;;;;;4.21;82.04;100777.66;5094774;28;19924;-71
2020/12/19 08:10:17;;;;;;;;;;;;;;;4.12;82.09;100778.16;5094313;28;19928;-70
2020/12/19 08:12:45;;;;;;;;;;;;;;;4.12;82.07;100789.91;5094394;28;19947;-71
2020/12/19 08:15:16;;;;;;;;;;;;;;;4.11;82.25;100785.66;5094178;28;19924;-71
2020/12/19 08:17:46;;;;;;;;;;;;;;;4.08;82.21;100781.34;5094346;28;19931;-71
2020/12/19 08:20:13;;;;;;;;;;;;;;;4.06;82.20;100787.97;5094284;28;19924;-70
2020/12/19 08:22:41;;;;;;;;;;;;;;;4.05;82.19;100792.16;5094264;28;19924;-70
2020/12/19 08:25:10;;;;;;;;;;;;;;;4.03;82.82;100788.72;5094142;28;19924;-70
2020/12/19 08:27:43;;;;;;;;;;;;;;;4.03;82.92;100797.97;5094619;28;19924;-71
2020/12/19 08:30:14;;;;;;;;;;;;;;;4.08;82.67;100791.44;5094244;28;20010;-71
2020/12/19 08:32:43;;;;;;;;;;;;;;;4.11;82.17;100795.75;5094019;28;19924;-71
2020/12/19 08:35:10;;;;;;;;;;;;;;;4.14;82.39;100793.38;5094142;28;19928;-70
2020/12/19 08:37:38;;;;;;;;;;;;;;;4.17;82.89;100785.94;5093944;28;19931;-70
2020/12/19 08:40:08;;;;;;;;;;;;;;;4.21;82.19;100792.81;5094098;28;20014;-70
2020/12/19 08:42:42;;;;;;;;;;;;;;;4.22;82.08;100794.56;5092901;28;19963;-71
2020/12/19 08:45:13;;;;;;;;;;;;;;;4.23;81.68;100793.75;5095893;28;20313;-72
2020/12/19 08:47:42;;;;;;;;;;;;;;;4.24;81.96;100792.97;5097147;28;19931;-70
2020/12/19 08:50:10;;;;;;;;;;;;;;;4.24;81.35;100798.00;5098177;28;19941;-70
2020/12/19 08:52:38;;;;;;;;;;;;;;;4.17;81.35;100793.50;5098092;28;19928;-71
2020/12/19 08:55:05;;;;;;;;;;;;;;;4.12;81.59;100787.38;5098017;28;19950;-73
2020/12/19 08:57:33;;;;;;;;;;;;;;;4.07;82.09;100785.53;5098093;28;19925;-70
2020/12/19 09:00:03;;;;;;;;;;;;;;;4.08;81.68;100787.25;5097942;28;19984;-70
2020/12/19 09:02:32;;;;;;;;;;;;;;;4.06;81.74;100788.84;5098034;28;19924;-71
2020/12/19 09:05:00;;;;;;;;;;;;;;;4.11;81.79;100785.66;5097792;28;19938;-71
2020/12/19 09:07:28;;;;;;;;;;;;;;;4.15;81.50;100793.41;5098149;28;19985;-71
2020/12/19 09:10:18;;;;;;;;;;;;;;;4.18;81.76;100792.69;5097027;28;19924;-71
2020/12/19 09:12:46;;;;;;;;;;;;;;;4.20;81.46;100783.53;5097593;28;19928;-70
2020/12/19 09:15:17;;;;;;;;;;;;;;;4.23;81.40;100786.16;5098190;28;19928;-72
2020/12/19 09:17:44;;;;;;;;;;;;;;;4.28;81.23;100784.69;5097930;28;20331;-71
2020/12/19 09:20:13;;;;;;;;;;;;;;;4.30;81.65;100783.09;5096669;28;19924;-71
2020/12/19 09:22:41;;;;;;;;;;;;;;;4.28;81.06;100785.56;5097557;28;20388;-70
2020/12/19 09:25:08;;;;;;;;;;;;;;;4.26;80.77;100784.66;5097704;28;19924;-71
2020/12/19 09:27:37;;;;;;;;;;;;;;;4.27;81.32;100778.78;5096226;28;19928;-70
2020/12/19 09:30:04;;;;;;;;;;;;;;;4.25;80.87;100779.53;5097328;28;19927;-71
2020/12/19 09:32:32;;;;;;;;;;;;;;;4.21;80.95;100777.66;5097722;28;20419;-70
2020/12/19 09:34:59;;;;;;;;;;;;;;;4.19;81.61;100779.28;5097659;28;20374;-73
2020/12/19 09:37:28;;;;;;;;;;;;;;;4.10;81.57;100773.84;5097222;28;19924;-71
2020/12/19 09:39:58;;;;;;;;;;;;;;;4.06;81.52;100768.66;5097293;28;20337;-72
2020/12/19 09:42:28;;;;;;;;;;;;;;;4.07;81.90;100779.63;5097182;28;19950;-70
2020/12/19 09:44:56;;;;;;;;;;;;;;;4.04;82.23;100774.44;5097149;28;20041;-71
2020/12/19 09:47:23;;;;;;;;;;;;;;;4.06;81.90;100768.66;5097144;28;19936;-71
2020/12/19 09:49:52;;;;;;;;;;;;;;;4.05;82.41;100764.38;5096924;28;19967;-70
2020/12/19 09:52:19;;;;;;;;;;;;;;;4.05;82.30;100761.00;5097011;28;19931;-71
2020/12/19 09:54:48;;;;;;;;;;;;;;;4.07;82.74;100760.28;5095743;28;19924;-71
2020/12/19 09:57:15;;;;;;;;;;;;;;;4.13;82.64;100756.28;5095815;28;19959;-72
2020/12/19 09:59:45;;;;;;;;;;;;;;;4.13;82.53;100763.88;5096902;28;19946;-72
2020/12/19 10:02:13;;;;;;;;;;;;;;;4.09;82.59;100757.81;5096696;28;20286;-71
2020/12/19 10:04:41;;;;;;;;;;;;;;;4.08;82.54;100759.47;5096656;28;19931;-70
2020/12/19 10:07:08;;;;;;;;;;;;;;;4.06;82.20;100758.53;5096648;28;19932;-71
2020/12/19 10:09:36;;;;;;;;;;;;;;;4.13;82.39;100766.41;5096709;28;20010;-70
2020/12/19 10:12:04;;;;;;;;;;;;;;;4.10;82.60;100754.50;5096641;28;19924;-70
2020/12/19 10:14:32;;;;;;;;;;;;;;;4.06;83.01;100757.69;5096560;28;19924;-71
2020/12/19 10:16:59;;;;;;;;;;;;;;;4.01;83.05;100754.97;5096397;28;19970;-70
2020/12/19 10:19:26;;;;;;;;;;;;;;;3.99;82.66;100755.69;5096449;28;19928;-72
2020/12/19 10:21:54;;;;;;;;;;;;;;;3.99;82.79;100759.09;5096444;28;19924;-71
2020/12/19 10:24:21;;;;;;;;;;;;;;;4.00;82.57;100748.19;5096253;28;19924;-71
2020/12/19 10:26:49;;;;;;;;;;;;;;;4.00;82.25;100743.16;5096280;28;19924;-70
2020/12/19 10:29:18;;;;;;;;;;;;;;;4.03;82.28;100745.78;5096597;28;20277;-71
2020/12/19 10:31:45;;;;;;;;;;;;;;;4.14;82.38;100745.38;5096239;28;19924;-71
2020/12/19 10:34:13;;;;;;;;;;;;;;;4.16;82.48;100743.75;5096205;28;19925;-73
2020/12/19 10:36:41;;;;;;;;;;;;;;;4.17;82.03;100740.47;5096104;28;19958;-71
2020/12/19 10:39:10;;;;;;;;;;;;;;;4.18;82.07;100732.94;5096127;28;19924;-70
2020/12/19 10:41:37;;;;;;;;;;;;;;;4.16;81.79;100733.66;5096097;28;20016;-73
2020/12/19 10:44:04;;;;;;;;;;;;;;;4.14;81.84;100730.22;5095902;28;19947;-71
2020/12/19 10:46:33;;;;;;;;;;;;;;;4.16;82.15;100726.94;5095927;28;19930;-72
2020/12/19 10:49:01;;;;;;;;;;;;;;;4.14;81.40;100732.75;5095863;28;19963;-71
2020/12/19 10:51:29;;;;;;;;;;;;;;;4.13;81.76;100728.50;5095794;28;20378;-70
2020/12/19 10:53:56;;;;;;;;;;;;;;;4.12;81.76;100726.75;5094600;28;20381;-72
2020/12/19 10:56:24;;;;;;;;;;;;;;;4.14;81.49;100728.56;5095622;28;19923;-72
2020/12/19 10:58:52;;;;;;;;;;;;;;;4.15;81.53;100726.91;5095762;28;19924;-70
2020/12/19 11:01:20;;;;;;;;;;;;;;;4.17;81.85;100721.13;5095629;28;19939;-71
2020/12/19 11:03:48;;;;;;;;;;;;;;;4.21;81.48;100717.03;5095794;28;19932;-71
2020/12/19 11:06:18;;;;;;;;;;;;;;;4.20;81.09;100725.44;5095841;28;19978;-72
2020/12/19 11:08:45;;;;;;;;;;;;;;;4.08;81.58;100701.38;5095335;28;19951;-71
2020/12/19 11:11:22;;;;;;;;;;;;;;;4.20;81.57;100722.91;5095439;28;19932;-72
2020/12/19 11:13:49;;;;;;;;;;;;;;;4.21;81.24;100722.09;5095438;28;19924;-71
2020/12/19 11:16:20;;;;;;;;;;;;;;;4.23;81.03;100712.91;5094983;28;19924;-71
2020/12/19 11:18:48;;;;;;;;;;;;;;;4.20;80.61;100716.16;5095371;28;19981;-72
2020/12/19 11:21:16;;;;;;;;;;;;;;;4.20;81.01;100710.28;5095548;28;19927;-71
2020/12/19 11:23:43;;;;;;;;;;;;;;;4.21;80.76;100702.75;5095158;28;19925;-71
2020/12/19 11:26:11;;;;;;;;;;;;;;;4.22;81.13;100714.59;5095148;28;19924;-70
2020/12/19 11:28:39;;;;;;;;;;;;;;;4.22;81.26;100706.13;5095112;28;19924;-73
2020/12/19 11:31:07;;;;;;;;;;;;;;;4.22;80.74;100703.63;5095128;28;19924;-71
2020/12/19 11:33:34;;;;;;;;;;;;;;;4.26;80.42;100700.41;5094881;28;19924;-71
2020/12/19 11:36:05;;;;;;;;;;;;;;;4.28;80.80;100699.66;5094991;28;19923;-70
2020/12/19 11:38:33;;;;;;;;;;;;;;;4.36;80.93;100692.41;5095024;28;19924;-71
2020/12/19 11:41:00;;;;;;;;;;;;;;;4.31;80.24;100689.69;5076891;28;20289;-72
2020/12/19 11:43:28;;;;;;;;;;;;;;;4.28;80.33;100688.69;5094877;28;19953;-72
2020/12/19 11:45:55;;;;;;;;;;;;;;;4.28;80.46;100684.50;5094732;28;19924;-72
2020/12/19 11:48:22;;;;;;;;;;;;;;;4.33;80.48;100679.63;5094847;28;19927;-72
2020/12/19 11:50:50;;;;;;;;;;;;;;;4.32;80.95;100678.75;5094763;28;20369;-72
2020/12/19 11:53:18;;;;;;;;;;;;;;;4.38;80.94;100676.50;5094640;28;19924;-73
2020/12/19 11:55:45;;;;;;;;;;;;;;;4.47;80.39;100670.94;5095017;28;19985;-72
2020/12/19 11:58:14;;;;;;;;;;;;;;;4.48;80.90;100668.47;5094919;28;19924;-73
2020/12/19 12:00:41;;;;;;;;;;;;;;;4.47;80.67;100671.81;5093424;28;19959;-71
2020/12/19 12:03:11;;;;;;;;;;;;;;;4.42;80.50;100668.22;5094590;28;20290;-70
2020/12/19 12:05:39;;;;;;;;;;;;;;;4.42;80.71;100664.84;5094509;28;20381;-71
2020/12/19 12:08:06;;;;;;;;;;;;;;;4.39;80.67;100659.69;5094745;28;20425;-71
2020/12/19 12:10:36;;;;;;;;;;;;;;;4.40;80.47;100661.38;5094398;28;20385;-73
2020/12/19 12:13:05;;;;;;;;;;;;;;;4.43;80.85;100661.50;5094462;28;19924;-72
2020/12/19 12:15:33;;;;;;;;;;;;;;;4.42;80.31;100660.63;5094115;28;19993;-72
2020/12/19 12:18:00;;;;;;;;;;;;;;;4.48;80.70;100662.56;5094271;28;19932;-72
2020/12/19 12:20:27;;;;;;;;;;;;;;;4.50;80.93;100655.91;5093663;28;20014;-70
2020/12/19 12:22:55;;;;;;;;;;;;;;;4.49;80.21;100654.16;5094289;28;19928;-71
2020/12/19 12:25:22;;;;;;;;;;;;;;;4.50;80.47;100655.91;5094498;28;19924;-70
2020/12/19 12:27:50;;;;;;;;;;;;;;;4.49;80.43;100649.09;5094436;28;19924;-70
2020/12/19 12:30:18;;;;;;;;;;;;;;;4.48;80.09;100654.97;5094192;28;19931;-70
2020/12/19 12:32:45;;;;;;;;;;;;;;;4.53;80.18;100650.97;5094511;28;19930;-71
2020/12/19 12:35:13;;;;;;;;;;;;;;;4.53;80.29;100650.97;5094045;28;19924;-70
2020/12/19 12:37:40;;;;;;;;;;;;;;;4.48;80.87;100647.41;5094137;28;20015;-70
2020/12/19 12:40:08;;;;;;;;;;;;;;;4.44;80.73;100645.56;5094010;28;19924;-70
2020/12/19 12:42:35;;;;;;;;;;;;;;;4.42;80.72;100637.03;5094078;28;19994;-71
2020/12/19 12:45:03;;;;;;;;;;;;;;;4.45;80.60;100639.69;5093960;28;19924;-71
2020/12/19 12:47:31;;;;;;;;;;;;;;;4.43;80.42;100628.66;5094179;28;19930;-72
2020/12/19 12:49:58;;;;;;;;;;;;;;;4.48;80.16;100627.19;5094342;28;19924;-71
2020/12/19 12:52:25;;;;;;;;;;;;;;;4.46;80.62;100623.72;5093835;28;19931;-70
2020/12/19 12:54:53;;;;;;;;;;;;;;;4.48;80.60;100627.19;5093970;28;19936;-70
2020/12/19 12:57:20;;;;;;;;;;;;;;;4.50;80.43;100630.63;5093758;28;20362;-70